KALW Airport (Walla Walla Rgnl) Information

FAA: ALW - ICAO: KALW

KALW Airport Location

State Washington
County Walla Walla
City Walla Walla
KALW Airport is 3 miles northeast of Walla Walla, WA.
Latitude 46-05-33.1500N
Longitude 118-17-02.6970W
Elevation 1,194ft

KALW Airport METARs

METAR KALW 200353Z AUTO 14003KT 10SM CLR 12/03 A2977 RMK AO2 SLP082 T01170033
Altimeter 29.77"
Temperature 11.7°C (53.1°F)
Wind 140° at 3KT
Clouds Skies are clear.
Visibility 10.0mi
Time observed: 2021-10-20T03:53:00Z

KALW Airport Details

Status Operational
Activation October 1937
Ownership Public
Usage Public
Chart SEATTLE
ATC on-site Yes
Beacon schedule sunset-sunrise
Beacon color clear green

KALW Airport Contacts

Owner PORT OF WALLA WALLA
Owner address 310 A STREET, WALLA WALLA, WA 99362
Owner phone 509-525-3100
Manager WILLY WILLIAMSON
Manager address 5239 JACKSON HWY, TOLEDO, WA 98591-9732
Manager phone 360-864-4966

KALW Airport (Walla Walla Rgnl) Radio Frequencies

KALW (Airport) Radio Frequencies

UNICOM 122.95
Common traffic advisory frequency (CTAF) 118.5